sensor_id;sensor_type;location;lat;lon;timestamp;P1;durP1;ratioP1;P2;durP2;ratioP2
16665;SDS011;8446;50.998;6.250;2023-02-22T00:00:27;206.63;;;27.30;;
16665;SDS011;8446;50.998;6.250;2023-02-22T00:03:09;210.57;;;27.90;;
16665;SDS011;8446;50.998;6.250;2023-02-22T00:05:36;192.40;;;26.45;;
16665;SDS011;8446;50.998;6.250;2023-02-22T00:08:04;184.38;;;25.00;;
16665;SDS011;8446;50.998;6.250;2023-02-22T00:10:34;208.23;;;25.08;;
16665;SDS011;8446;50.998;6.250;2023-02-22T00:13:04;197.15;;;27.33;;
16665;SDS011;8446;50.998;6.250;2023-02-22T00:15:31;165.43;;;28.95;;
16665;SDS011;8446;50.998;6.250;2023-02-22T00:17:59;176.27;;;24.45;;
16665;SDS011;8446;50.998;6.250;2023-02-22T00:20:27;119.03;;;22.58;;
16665;SDS011;8446;50.998;6.250;2023-02-22T00:22:54;178.50;;;25.08;;
16665;SDS011;8446;50.998;6.250;2023-02-22T00:25:22;162.45;;;25.45;;
16665;SDS011;8446;50.998;6.250;2023-02-22T00:27:50;256.40;;;30.35;;
16665;SDS011;8446;50.998;6.250;2023-02-22T00:30:18;129.80;;;25.25;;
16665;SDS011;8446;50.998;6.250;2023-02-22T00:32:46;187.50;;;25.33;;
16665;SDS011;8446;50.998;6.250;2023-02-22T00:35:13;205.20;;;24.77;;
16665;SDS011;8446;50.998;6.250;2023-02-22T00:37:42;183.40;;;23.45;;
16665;SDS011;8446;50.998;6.250;2023-02-22T00:40:09;232.07;;;26.95;;
16665;SDS011;8446;50.998;6.250;2023-02-22T00:42:37;174.13;;;23.98;;
16665;SDS011;8446;50.998;6.250;2023-02-22T00:45:04;220.90;;;29.20;;
16665;SDS011;8446;50.998;6.250;2023-02-22T00:47:31;213.35;;;27.25;;
16665;SDS011;8446;50.998;6.250;2023-02-22T00:49:58;300.77;;;30.08;;
16665;SDS011;8446;50.998;6.250;2023-02-22T00:52:26;316.63;;;28.55;;
16665;SDS011;8446;50.998;6.250;2023-02-22T00:54:54;224.82;;;23.73;;
16665;SDS011;8446;50.998;6.250;2023-02-22T00:57:22;175.90;;;26.27;;
16665;SDS011;8446;50.998;6.250;2023-02-22T00:59:49;241.70;;;28.48;;
16665;SDS011;8446;50.998;6.250;2023-02-22T01:02:16;263.27;;;28.63;;
16665;SDS011;8446;50.998;6.250;2023-02-22T01:04:44;172.32;;;24.63;;
16665;SDS011;8446;50.998;6.250;2023-02-22T01:07:11;246.40;;;24.15;;
16665;SDS011;8446;50.998;6.250;2023-02-22T01:09:38;227.88;;;25.55;;
16665;SDS011;8446;50.998;6.250;2023-02-22T01:12:07;270.02;;;28.15;;
16665;SDS011;8446;50.998;6.250;2023-02-22T01:14:34;249.00;;;27.23;;
16665;SDS011;8446;50.998;6.250;2023-02-22T01:17:01;226.38;;;28.15;;
16665;SDS011;8446;50.998;6.250;2023-02-22T01:19:28;211.30;;;26.92;;
16665;SDS011;8446;50.998;6.250;2023-02-22T01:21:56;206.20;;;24.88;;
16665;SDS011;8446;50.998;6.250;2023-02-22T01:24:23;134.85;;;23.55;;
16665;SDS011;8446;50.998;6.250;2023-02-22T01:26:51;201.82;;;23.73;;
16665;SDS011;8446;50.998;6.250;2023-02-22T01:29:19;166.52;;;26.00;;
16665;SDS011;8446;50.998;6.250;2023-02-22T01:31:50;130.45;;;22.13;;
16665;SDS011;8446;50.998;6.250;2023-02-22T01:34:18;209.98;;;24.75;;
16665;SDS011;8446;50.998;6.250;2023-02-22T01:36:46;177.10;;;24.65;;
16665;SDS011;8446;50.998;6.250;2023-02-22T01:39:13;189.70;;;23.83;;
16665;SDS011;8446;50.998;6.250;2023-02-22T01:41:41;200.18;;;26.40;;
16665;SDS011;8446;50.998;6.250;2023-02-22T01:44:16;229.85;;;27.85;;
16665;SDS011;8446;50.998;6.250;2023-02-22T01:46:45;191.20;;;26.63;;
16665;SDS011;8446;50.998;6.250;2023-02-22T01:49:12;219.73;;;27.60;;
16665;SDS011;8446;50.998;6.250;2023-02-22T01:51:41;157.07;;;25.23;;
16665;SDS011;8446;50.998;6.250;2023-02-22T01:54:09;203.18;;;28.98;;
16665;SDS011;8446;50.998;6.250;2023-02-22T01:56:38;177.27;;;26.63;;
16665;SDS011;8446;50.998;6.250;2023-02-22T01:59:07;232.40;;;27.65;;
16665;SDS011;8446;50.998;6.250;2023-02-22T02:01:35;284.17;;;29.73;;
16665;SDS011;8446;50.998;6.250;2023-02-22T02:04:07;201.35;;;26.38;;
16665;SDS011;8446;50.998;6.250;2023-02-22T02:06:34;241.40;;;28.55;;
16665;SDS011;8446;50.998;6.250;2023-02-22T02:09:03;268.15;;;27.65;;
16665;SDS011;8446;50.998;6.250;2023-02-22T02:11:34;192.57;;;26.10;;
16665;SDS011;8446;50.998;6.250;2023-02-22T02:14:05;191.70;;;27.08;;
16665;SDS011;8446;50.998;6.250;2023-02-22T02:16:34;152.18;;;26.33;;
16665;SDS011;8446;50.998;6.250;2023-02-22T02:19:05;211.50;;;25.42;;
16665;SDS011;8446;50.998;6.250;2023-02-22T02:24:31;191.68;;;24.23;;
16665;SDS011;8446;50.998;6.250;2023-02-22T02:27:09;134.23;;;24.73;;
16665;SDS011;8446;50.998;6.250;2023-02-22T02:29:46;100.00;;;23.05;;
16665;SDS011;8446;50.998;6.250;2023-02-22T02:32:29;161.32;;;23.55;;
16665;SDS011;8446;50.998;6.250;2023-02-22T02:34:59;160.20;;;20.58;;
16665;SDS011;8446;50.998;6.250;2023-02-22T02:37:31;164.18;;;23.63;;
16665;SDS011;8446;50.998;6.250;2023-02-22T02:40:01;139.90;;;22.50;;
16665;SDS011;8446;50.998;6.250;2023-02-22T02:42:35;243.57;;;26.20;;
16665;SDS011;8446;50.998;6.250;2023-02-22T02:45:04;162.00;;;22.60;;
16665;SDS011;8446;50.998;6.250;2023-02-22T02:47:36;229.85;;;25.55;;
16665;SDS011;8446;50.998;6.250;2023-02-22T02:50:08;146.18;;;22.88;;
16665;SDS011;8446;50.998;6.250;2023-02-22T02:52:37;185.20;;;23.30;;
16665;SDS011;8446;50.998;6.250;2023-02-22T02:55:05;136.27;;;22.20;;
16665;SDS011;8446;50.998;6.250;2023-02-22T02:57:35;193.65;;;23.60;;
16665;SDS011;8446;50.998;6.250;2023-02-22T03:00:03;192.77;;;22.80;;
16665;SDS011;8446;50.998;6.250;2023-02-22T03:02:48;152.63;;;20.33;;
16665;SDS011;8446;50.998;6.250;2023-02-22T03:05:24;136.95;;;22.85;;
16665;SDS011;8446;50.998;6.250;2023-02-22T03:07:58;228.65;;;23.42;;
16665;SDS011;8446;50.998;6.250;2023-02-22T03:10:34;153.63;;;22.52;;
16665;SDS011;8446;50.998;6.250;2023-02-22T03:13:08;119.10;;;20.35;;
16665;SDS011;8446;50.998;6.250;2023-02-22T03:15:38;131.20;;;18.23;;
16665;SDS011;8446;50.998;6.250;2023-02-22T03:18:11;143.50;;;20.42;;
16665;SDS011;8446;50.998;6.250;2023-02-22T03:20:42;119.28;;;17.05;;
16665;SDS011;8446;50.998;6.250;2023-02-22T03:23:12;73.93;;;14.32;;
16665;SDS011;8446;50.998;6.250;2023-02-22T03:25:42;49.97;;;14.10;;
16665;SDS011;8446;50.998;6.250;2023-02-22T03:28:12;110.60;;;15.98;;
16665;SDS011;8446;50.998;6.250;2023-02-22T03:30:42;108.93;;;15.65;;
16665;SDS011;8446;50.998;6.250;2023-02-22T03:33:13;103.03;;;16.95;;
16665;SDS011;8446;50.998;6.250;2023-02-22T03:35:45;112.95;;;16.25;;
16665;SDS011;8446;50.998;6.250;2023-02-22T03:38:14;99.25;;;15.48;;
16665;SDS011;8446;50.998;6.250;2023-02-22T03:40:44;74.25;;;14.77;;
16665;SDS011;8446;50.998;6.250;2023-02-22T03:43:12;104.68;;;14.73;;
16665;SDS011;8446;50.998;6.250;2023-02-22T03:45:40;90.00;;;14.32;;
16665;SDS011;8446;50.998;6.250;2023-02-22T03:48:10;79.35;;;14.32;;
16665;SDS011;8446;50.998;6.250;2023-02-22T03:50:41;61.78;;;13.93;;
16665;SDS011;8446;50.998;6.250;2023-02-22T03:53:09;73.90;;;13.02;;
16665;SDS011;8446;50.998;6.250;2023-02-22T03:55:36;88.75;;;14.30;;
16665;SDS011;8446;50.998;6.250;2023-02-22T03:58:04;52.33;;;12.05;;
16665;SDS011;8446;50.998;6.250;2023-02-22T04:00:32;58.50;;;12.05;;
16665;SDS011;8446;50.998;6.250;2023-02-22T04:03:00;84.35;;;13.02;;
16665;SDS011;8446;50.998;6.250;2023-02-22T04:05:28;119.45;;;13.98;;
16665;SDS011;8446;50.998;6.250;2023-02-22T04:07:56;62.75;;;13.57;;
16665;SDS011;8446;50.998;6.250;2023-02-22T04:10:24;68.60;;;12.82;;
16665;SDS011;8446;50.998;6.250;2023-02-22T04:12:51;69.32;;;14.23;;
16665;SDS011;8446;50.998;6.250;2023-02-22T04:15:19;53.53;;;11.05;;
16665;SDS011;8446;50.998;6.250;2023-02-22T04:17:46;73.28;;;11.85;;
16665;SDS011;8446;50.998;6.250;2023-02-22T04:20:13;78.80;;;14.23;;
16665;SDS011;8446;50.998;6.250;2023-02-22T04:22:44;46.05;;;12.80;;
16665;SDS011;8446;50.998;6.250;2023-02-22T04:25:12;54.75;;;14.23;;
16665;SDS011;8446;50.998;6.250;2023-02-22T04:27:39;65.07;;;13.38;;
16665;SDS011;8446;50.998;6.250;2023-02-22T04:30:07;68.93;;;12.52;;
16665;SDS011;8446;50.998;6.250;2023-02-22T04:32:34;52.58;;;13.15;;
16665;SDS011;8446;50.998;6.250;2023-02-22T04:35:01;59.63;;;13.60;;
16665;SDS011;8446;50.998;6.250;2023-02-22T04:37:29;99.10;;;12.85;;
16665;SDS011;8446;50.998;6.250;2023-02-22T04:39:58;73.32;;;12.77;;
16665;SDS011;8446;50.998;6.250;2023-02-22T04:42:27;41.38;;;12.60;;
16665;SDS011;8446;50.998;6.250;2023-02-22T04:44:54;72.82;;;13.30;;
16665;SDS011;8446;50.998;6.250;2023-02-22T04:47:21;73.47;;;11.52;;
16665;SDS011;8446;50.998;6.250;2023-02-22T04:49:48;28.85;;;9.65;;
16665;SDS011;8446;50.998;6.250;2023-02-22T04:52:15;42.72;;;10.80;;
16665;SDS011;8446;50.998;6.250;2023-02-22T04:54:42;33.15;;;11.05;;
16665;SDS011;8446;50.998;6.250;2023-02-22T04:57:10;45.78;;;10.65;;
16665;SDS011;8446;50.998;6.250;2023-02-22T04:59:38;41.67;;;11.27;;
16665;SDS011;8446;50.998;6.250;2023-02-22T05:02:05;26.70;;;10.77;;
16665;SDS011;8446;50.998;6.250;2023-02-22T05:04:32;33.35;;;10.70;;
16665;SDS011;8446;50.998;6.250;2023-02-22T05:07:00;45.53;;;12.43;;
16665;SDS011;8446;50.998;6.250;2023-02-22T05:09:27;41.25;;;10.82;;
16665;SDS011;8446;50.998;6.250;2023-02-22T05:11:54;61.08;;;12.60;;
16665;SDS011;8446;50.998;6.250;2023-02-22T05:14:21;56.08;;;11.13;;
16665;SDS011;8446;50.998;6.250;2023-02-22T05:16:52;35.75;;;12.02;;
16665;SDS011;8446;50.998;6.250;2023-02-22T05:19:19;34.03;;;11.45;;
16665;SDS011;8446;50.998;6.250;2023-02-22T05:21:47;105.07;;;12.57;;
16665;SDS011;8446;50.998;6.250;2023-02-22T05:24:14;75.78;;;12.13;;
16665;SDS011;8446;50.998;6.250;2023-02-22T05:26:41;71.15;;;12.55;;
16665;SDS011;8446;50.998;6.250;2023-02-22T05:29:09;96.78;;;12.85;;
16665;SDS011;8446;50.998;6.250;2023-02-22T05:31:36;64.03;;;12.60;;
16665;SDS011;8446;50.998;6.250;2023-02-22T05:34:07;55.20;;;12.38;;
16665;SDS011;8446;50.998;6.250;2023-02-22T05:36:34;46.03;;;11.68;;
16665;SDS011;8446;50.998;6.250;2023-02-22T05:39:01;57.45;;;12.57;;
16665;SDS011;8446;50.998;6.250;2023-02-22T05:41:29;60.00;;;12.35;;
16665;SDS011;8446;50.998;6.250;2023-02-22T05:43:56;109.18;;;14.60;;
16665;SDS011;8446;50.998;6.250;2023-02-22T05:46:23;55.33;;;12.88;;
16665;SDS011;8446;50.998;6.250;2023-02-22T05:48:50;59.28;;;11.85;;
16665;SDS011;8446;50.998;6.250;2023-02-22T05:51:19;93.90;;;14.15;;
16665;SDS011;8446;50.998;6.250;2023-02-22T05:53:46;59.95;;;12.93;;
16665;SDS011;8446;50.998;6.250;2023-02-22T05:56:19;42.97;;;12.98;;
16665;SDS011;8446;50.998;6.250;2023-02-22T05:58:46;81.22;;;13.73;;
16665;SDS011;8446;50.998;6.250;2023-02-22T06:01:13;67.75;;;14.73;;
16665;SDS011;8446;50.998;6.250;2023-02-22T06:03:41;81.90;;;12.82;;
16665;SDS011;8446;50.998;6.250;2023-02-22T06:06:08;63.47;;;11.52;;
16665;SDS011;8446;50.998;6.250;2023-02-22T06:08:36;52.50;;;12.85;;
16665;SDS011;8446;50.998;6.250;2023-02-22T06:11:04;63.95;;;13.88;;
16665;SDS011;8446;50.998;6.250;2023-02-22T06:13:31;62.45;;;13.30;;
16665;SDS011;8446;50.998;6.250;2023-02-22T06:15:58;87.47;;;14.02;;
16665;SDS011;8446;50.998;6.250;2023-02-22T06:18:25;74.90;;;14.75;;
16665;SDS011;8446;50.998;6.250;2023-02-22T06:20:54;52.22;;;12.52;;
16665;SDS011;8446;50.998;6.250;2023-02-22T06:23:21;74.82;;;13.13;;
16665;SDS011;8446;50.998;6.250;2023-02-22T06:25:50;83.32;;;13.70;;
16665;SDS011;8446;50.998;6.250;2023-02-22T06:28:17;65.78;;;13.00;;
16665;SDS011;8446;50.998;6.250;2023-02-22T06:30:44;73.32;;;14.95;;
16665;SDS011;8446;50.998;6.250;2023-02-22T06:33:11;82.05;;;13.63;;
16665;SDS011;8446;50.998;6.250;2023-02-22T06:35:38;171.38;;;15.73;;
16665;SDS011;8446;50.998;6.250;2023-02-22T06:38:06;62.58;;;12.95;;
16665;SDS011;8446;50.998;6.250;2023-02-22T06:40:33;79.05;;;13.90;;
16665;SDS011;8446;50.998;6.250;2023-02-22T06:43:02;59.72;;;13.30;;
16665;SDS011;8446;50.998;6.250;2023-02-22T06:45:29;44.72;;;12.43;;
16665;SDS011;8446;50.998;6.250;2023-02-22T06:47:56;33.72;;;12.20;;
16665;SDS011;8446;50.998;6.250;2023-02-22T06:50:25;60.30;;;12.00;;
16665;SDS011;8446;50.998;6.250;2023-02-22T06:52:52;53.90;;;11.30;;
16665;SDS011;8446;50.998;6.250;2023-02-22T06:55:21;38.95;;;11.40;;
16665;SDS011;8446;50.998;6.250;2023-02-22T06:57:48;42.97;;;9.40;;
16665;SDS011;8446;50.998;6.250;2023-02-22T07:00:17;33.58;;;10.27;;
16665;SDS011;8446;50.998;6.250;2023-02-22T07:02:45;47.65;;;11.23;;
16665;SDS011;8446;50.998;6.250;2023-02-22T07:05:14;41.05;;;11.27;;
16665;SDS011;8446;50.998;6.250;2023-02-22T07:07:42;49.17;;;12.32;;
16665;SDS011;8446;50.998;6.250;2023-02-22T07:10:15;55.88;;;11.25;;
16665;SDS011;8446;50.998;6.250;2023-02-22T07:12:42;56.53;;;11.23;;
16665;SDS011;8446;50.998;6.250;2023-02-22T07:15:09;103.95;;;11.70;;
16665;SDS011;8446;50.998;6.250;2023-02-22T07:17:39;53.53;;;11.80;;
16665;SDS011;8446;50.998;6.250;2023-02-22T07:20:06;36.17;;;10.27;;
16665;SDS011;8446;50.998;6.250;2023-02-22T07:22:35;43.78;;;11.52;;
16665;SDS011;8446;50.998;6.250;2023-02-22T07:25:03;30.00;;;11.00;;
16665;SDS011;8446;50.998;6.250;2023-02-22T07:27:30;39.28;;;9.98;;
16665;SDS011;8446;50.998;6.250;2023-02-22T07:29:57;29.23;;;9.52;;
16665;SDS011;8446;50.998;6.250;2023-02-22T07:32:24;24.23;;;9.90;;
16665;SDS011;8446;50.998;6.250;2023-02-22T07:34:53;23.27;;;9.68;;
16665;SDS011;8446;50.998;6.250;2023-02-22T07:37:20;35.33;;;10.35;;
16665;SDS011;8446;50.998;6.250;2023-02-22T07:39:47;25.88;;;10.85;;
16665;SDS011;8446;50.998;6.250;2023-02-22T07:42:14;16.45;;;8.93;;
16665;SDS011;8446;50.998;6.250;2023-02-22T07:44:41;26.80;;;10.27;;
16665;SDS011;8446;50.998;6.250;2023-02-22T07:47:08;25.52;;;9.40;;
16665;SDS011;8446;50.998;6.250;2023-02-22T07:49:36;26.52;;;10.45;;
16665;SDS011;8446;50.998;6.250;2023-02-22T07:52:05;28.20;;;9.43;;
16665;SDS011;8446;50.998;6.250;2023-02-22T07:54:32;18.08;;;8.15;;
16665;SDS011;8446;50.998;6.250;2023-02-22T07:57:00;25.52;;;10.57;;
16665;SDS011;8446;50.998;6.250;2023-02-22T07:59:28;30.27;;;9.15;;
16665;SDS011;8446;50.998;6.250;2023-02-22T08:01:55;26.00;;;10.95;;
16665;SDS011;8446;50.998;6.250;2023-02-22T08:04:22;25.98;;;9.75;;
16665;SDS011;8446;50.998;6.250;2023-02-22T08:06:49;20.08;;;9.35;;
16665;SDS011;8446;50.998;6.250;2023-02-22T08:09:18;24.67;;;9.60;;
16665;SDS011;8446;50.998;6.250;2023-02-22T08:11:47;18.80;;;9.80;;
16665;SDS011;8446;50.998;6.250;2023-02-22T08:14:14;17.33;;;8.57;;
16665;SDS011;8446;50.998;6.250;2023-02-22T08:16:42;19.63;;;10.55;;
16665;SDS011;8446;50.998;6.250;2023-02-22T08:19:09;33.13;;;11.05;;
16665;SDS011;8446;50.998;6.250;2023-02-22T08:21:36;25.20;;;9.50;;
16665;SDS011;8446;50.998;6.250;2023-02-22T08:24:04;19.83;;;9.52;;
16665;SDS011;8446;50.998;6.250;2023-02-22T08:26:32;25.05;;;10.52;;
16665;SDS011;8446;50.998;6.250;2023-02-22T08:28:59;25.38;;;11.32;;
16665;SDS011;8446;50.998;6.250;2023-02-22T08:31:26;25.73;;;11.27;;
16665;SDS011;8446;50.998;6.250;2023-02-22T08:33:53;22.33;;;10.18;;
16665;SDS011;8446;50.998;6.250;2023-02-22T08:36:21;34.83;;;12.65;;
16665;SDS011;8446;50.998;6.250;2023-02-22T08:38:48;24.02;;;11.70;;
16665;SDS011;8446;50.998;6.250;2023-02-22T08:41:15;36.38;;;13.27;;
16665;SDS011;8446;50.998;6.250;2023-02-22T08:43:44;33.83;;;11.75;;
16665;SDS011;8446;50.998;6.250;2023-02-22T08:46:11;30.00;;;11.80;;
16665;SDS011;8446;50.998;6.250;2023-02-22T08:48:38;25.20;;;10.95;;
16665;SDS011;8446;50.998;6.250;2023-02-22T08:51:05;25.30;;;9.95;;
16665;SDS011;8446;50.998;6.250;2023-02-22T08:53:32;20.17;;;9.88;;
16665;SDS011;8446;50.998;6.250;2023-02-22T08:55:59;24.47;;;10.20;;
16665;SDS011;8446;50.998;6.250;2023-02-22T08:58:26;14.60;;;9.03;;
16665;SDS011;8446;50.998;6.250;2023-02-22T09:00:55;16.67;;;9.27;;
16665;SDS011;8446;50.998;6.250;2023-02-22T09:03:22;21.80;;;9.00;;
16665;SDS011;8446;50.998;6.250;2023-02-22T09:05:49;15.07;;;8.37;;
16665;SDS011;8446;50.998;6.250;2023-02-22T09:08:16;14.50;;;8.10;;
16665;SDS011;8446;50.998;6.250;2023-02-22T09:10:43;17.90;;;7.77;;
16665;SDS011;8446;50.998;6.250;2023-02-22T09:13:10;11.47;;;7.07;;
16665;SDS011;8446;50.998;6.250;2023-02-22T09:15:38;12.20;;;6.60;;
16665;SDS011;8446;50.998;6.250;2023-02-22T09:18:07;11.73;;;6.70;;
16665;SDS011;8446;50.998;6.250;2023-02-22T09:20:34;12.33;;;6.30;;
16665;SDS011;8446;50.998;6.250;2023-02-22T09:23:02;17.27;;;7.93;;
16665;SDS011;8446;50.998;6.250;2023-02-22T09:25:29;10.60;;;6.70;;
16665;SDS011;8446;50.998;6.250;2023-02-22T09:27:58;12.33;;;7.17;;
16665;SDS011;8446;50.998;6.250;2023-02-22T09:30:26;18.30;;;6.50;;
16665;SDS011;8446;50.998;6.250;2023-02-22T09:32:57;16.57;;;7.30;;
16665;SDS011;8446;50.998;6.250;2023-02-22T09:35:25;11.17;;;7.10;;
16665;SDS011;8446;50.998;6.250;2023-02-22T09:37:53;14.13;;;6.47;;
16665;SDS011;8446;50.998;6.250;2023-02-22T09:40:20;14.00;;;6.40;;
16665;SDS011;8446;50.998;6.250;2023-02-22T09:42:57;14.10;;;6.93;;
16665;SDS011;8446;50.998;6.250;2023-02-22T09:45:29;15.93;;;6.60;;
16665;SDS011;8446;50.998;6.250;2023-02-22T09:48:00;14.80;;;6.40;;
16665;SDS011;8446;50.998;6.250;2023-02-22T09:50:31;10.90;;;6.83;;
16665;SDS011;8446;50.998;6.250;2023-02-22T09:53:01;17.03;;;6.57;;
16665;SDS011;8446;50.998;6.250;2023-02-22T09:55:30;11.63;;;6.33;;
16665;SDS011;8446;50.998;6.250;2023-02-22T09:58:00;15.90;;;6.77;;
16665;SDS011;8446;50.998;6.250;2023-02-22T10:00:28;9.73;;;5.93;;
16665;SDS011;8446;50.998;6.250;2023-02-22T10:02:59;12.30;;;7.00;;
16665;SDS011;8446;50.998;6.250;2023-02-22T10:05:33;13.30;;;6.70;;
16665;SDS011;8446;50.998;6.250;2023-02-22T10:08:04;10.63;;;5.90;;
16665;SDS011;8446;50.998;6.250;2023-02-22T10:10:32;14.30;;;6.43;;
16665;SDS011;8446;50.998;6.250;2023-02-22T10:13:03;13.47;;;6.50;;
16665;SDS011;8446;50.998;6.250;2023-02-22T10:15:35;10.70;;;6.30;;
16665;SDS011;8446;50.998;6.250;2023-02-22T10:18:31;12.80;;;5.80;;
16665;SDS011;8446;50.998;6.250;2023-02-22T10:21:01;12.57;;;6.10;;
16665;SDS011;8446;50.998;6.250;2023-02-22T10:23:32;11.00;;;6.43;;
16665;SDS011;8446;50.998;6.250;2023-02-22T10:26:04;9.27;;;5.37;;
16665;SDS011;8446;50.998;6.250;2023-02-22T10:28:36;15.60;;;5.80;;
16665;SDS011;8446;50.998;6.250;2023-02-22T10:31:06;14.63;;;5.07;;
16665;SDS011;8446;50.998;6.250;2023-02-22T10:33:34;12.27;;;5.73;;
16665;SDS011;8446;50.998;6.250;2023-02-22T10:36:04;9.97;;;6.53;;
16665;SDS011;8446;50.998;6.250;2023-02-22T10:38:32;12.13;;;5.27;;
16665;SDS011;8446;50.998;6.250;2023-02-22T10:41:00;14.57;;;6.67;;
16665;SDS011;8446;50.998;6.250;2023-02-22T10:43:28;11.47;;;5.97;;
16665;SDS011;8446;50.998;6.250;2023-02-22T10:45:57;8.83;;;5.30;;
16665;SDS011;8446;50.998;6.250;2023-02-22T10:48:25;8.30;;;5.07;;
16665;SDS011;8446;50.998;6.250;2023-02-22T10:50:53;11.50;;;6.33;;
16665;SDS011;8446;50.998;6.250;2023-02-22T10:53:24;9.43;;;5.83;;
16665;SDS011;8446;50.998;6.250;2023-02-22T10:56:08;9.77;;;5.23;;
16665;SDS011;8446;50.998;6.250;2023-02-22T10:58:48;12.20;;;5.83;;
16665;SDS011;8446;50.998;6.250;2023-02-22T11:04:02;6.20;;;4.90;;
16665;SDS011;8446;50.998;6.250;2023-02-22T11:06:31;13.53;;;6.00;;
16665;SDS011;8446;50.998;6.250;2023-02-22T11:09:07;11.67;;;4.90;;
16665;SDS011;8446;50.998;6.250;2023-02-22T11:11:38;9.80;;;5.80;;
16665;SDS011;8446;50.998;6.250;2023-02-22T11:14:05;9.17;;;5.37;;
16665;SDS011;8446;50.998;6.250;2023-02-22T11:16:35;8.97;;;4.53;;
16665;SDS011;8446;50.998;6.250;2023-02-22T11:19:05;8.27;;;5.37;;
16665;SDS011;8446;50.998;6.250;2023-02-22T11:21:37;17.83;;;5.70;;
16665;SDS011;8446;50.998;6.250;2023-02-22T11:24:07;11.33;;;6.00;;
16665;SDS011;8446;50.998;6.250;2023-02-22T11:26:36;7.80;;;4.60;;
16665;SDS011;8446;50.998;6.250;2023-02-22T11:29:08;11.97;;;5.17;;
16665;SDS011;8446;50.998;6.250;2023-02-22T11:31:40;10.67;;;5.60;;
16665;SDS011;8446;50.998;6.250;2023-02-22T11:34:07;10.77;;;5.17;;
16665;SDS011;8446;50.998;6.250;2023-02-22T11:36:50;7.43;;;4.73;;
16665;SDS011;8446;50.998;6.250;2023-02-22T11:39:23;13.57;;;4.57;;
16665;SDS011;8446;50.998;6.250;2023-02-22T11:41:51;9.50;;;4.67;;
16665;SDS011;8446;50.998;6.250;2023-02-22T11:44:22;6.67;;;4.53;;
16665;SDS011;8446;50.998;6.250;2023-02-22T11:46:49;7.90;;;5.17;;
16665;SDS011;8446;50.998;6.250;2023-02-22T11:49:20;7.07;;;5.10;;
16665;SDS011;8446;50.998;6.250;2023-02-22T11:54:42;7.60;;;4.27;;
16665;SDS011;8446;50.998;6.250;2023-02-22T11:57:18;7.30;;;4.53;;
16665;SDS011;8446;50.998;6.250;2023-02-22T11:59:52;7.83;;;4.83;;
16665;SDS011;8446;50.998;6.250;2023-02-22T12:02:24;8.30;;;4.50;;
16665;SDS011;8446;50.998;6.250;2023-02-22T12:04:57;8.57;;;5.43;;
16665;SDS011;8446;50.998;6.250;2023-02-22T12:07:35;9.77;;;5.90;;
16665;SDS011;8446;50.998;6.250;2023-02-22T12:10:13;7.97;;;5.67;;
16665;SDS011;8446;50.998;6.250;2023-02-22T12:12:44;10.80;;;6.00;;
16665;SDS011;8446;50.998;6.250;2023-02-22T12:15:17;8.17;;;5.30;;
16665;SDS011;8446;50.998;6.250;2023-02-22T12:17:49;14.77;;;7.03;;
16665;SDS011;8446;50.998;6.250;2023-02-22T12:20:19;11.33;;;5.93;;
16665;SDS011;8446;50.998;6.250;2023-02-22T12:22:52;12.97;;;6.80;;
16665;SDS011;8446;50.998;6.250;2023-02-22T12:25:22;8.37;;;5.47;;
16665;SDS011;8446;50.998;6.250;2023-02-22T12:27:51;9.67;;;6.43;;
16665;SDS011;8446;50.998;6.250;2023-02-22T12:30:19;10.40;;;6.37;;
16665;SDS011;8446;50.998;6.250;2023-02-22T12:32:49;10.60;;;6.00;;
16665;SDS011;8446;50.998;6.250;2023-02-22T12:35:18;12.70;;;6.27;;
16665;SDS011;8446;50.998;6.250;2023-02-22T12:37:48;10.07;;;6.47;;
16665;SDS011;8446;50.998;6.250;2023-02-22T12:40:19;10.53;;;6.80;;
16665;SDS011;8446;50.998;6.250;2023-02-22T12:42:51;11.17;;;7.00;;
16665;SDS011;8446;50.998;6.250;2023-02-22T12:45:24;9.60;;;6.50;;
16665;SDS011;8446;50.998;6.250;2023-02-22T12:47:56;11.50;;;6.33;;
16665;SDS011;8446;50.998;6.250;2023-02-22T12:50:26;8.40;;;6.57;;
16665;SDS011;8446;50.998;6.250;2023-02-22T12:52:58;10.70;;;6.53;;
16665;SDS011;8446;50.998;6.250;2023-02-22T12:55:28;11.43;;;6.80;;
16665;SDS011;8446;50.998;6.250;2023-02-22T12:57:59;12.90;;;6.40;;
16665;SDS011;8446;50.998;6.250;2023-02-22T13:00:32;8.47;;;6.87;;
16665;SDS011;8446;50.998;6.250;2023-02-22T13:03:02;9.47;;;6.13;;
16665;SDS011;8446;50.998;6.250;2023-02-22T13:05:32;10.90;;;6.50;;
16665;SDS011;8446;50.998;6.250;2023-02-22T13:08:02;10.43;;;6.43;;
16665;SDS011;8446;50.998;6.250;2023-02-22T13:10:37;11.60;;;6.17;;
16665;SDS011;8446;50.998;6.250;2023-02-22T13:13:10;8.97;;;6.63;;
16665;SDS011;8446;50.998;6.250;2023-02-22T13:15:41;9.77;;;7.40;;
16665;SDS011;8446;50.998;6.250;2023-02-22T13:18:12;10.27;;;6.80;;
16665;SDS011;8446;50.998;6.250;2023-02-22T13:20:41;12.43;;;7.87;;
16665;SDS011;8446;50.998;6.250;2023-02-22T13:23:13;9.67;;;6.63;;
16665;SDS011;8446;50.998;6.250;2023-02-22T13:25:44;11.73;;;7.40;;
16665;SDS011;8446;50.998;6.250;2023-02-22T13:28:18;10.63;;;7.53;;
16665;SDS011;8446;50.998;6.250;2023-02-22T13:30:49;9.63;;;7.07;;
16665;SDS011;8446;50.998;6.250;2023-02-22T13:33:24;9.97;;;7.40;;
16665;SDS011;8446;50.998;6.250;2023-02-22T13:41:48;11.90;;;7.30;;
16665;SDS011;8446;50.998;6.250;2023-02-22T13:44:26;13.83;;;7.73;;
16665;SDS011;8446;50.998;6.250;2023-02-22T13:47:02;15.37;;;7.93;;
16665;SDS011;8446;50.998;6.250;2023-02-22T13:49:45;15.97;;;8.17;;
16665;SDS011;8446;50.998;6.250;2023-02-22T13:52:15;15.10;;;8.00;;
16665;SDS011;8446;50.998;6.250;2023-02-22T13:54:43;11.37;;;7.53;;
16665;SDS011;8446;50.998;6.250;2023-02-22T13:57:19;11.20;;;8.43;;
16665;SDS011;8446;50.998;6.250;2023-02-22T13:59:48;11.50;;;7.50;;
16665;SDS011;8446;50.998;6.250;2023-02-22T14:05:46;12.53;;;8.00;;
16665;SDS011;8446;50.998;6.250;2023-02-22T14:11:00;16.00;;;8.40;;
16665;SDS011;8446;50.998;6.250;2023-02-22T14:13:30;16.60;;;8.10;;
16665;SDS011;8446;50.998;6.250;2023-02-22T14:18:59;10.13;;;7.43;;
16665;SDS011;8446;50.998;6.250;2023-02-22T14:21:31;11.73;;;8.10;;
16665;SDS011;8446;50.998;6.250;2023-02-22T14:24:05;12.07;;;7.93;;
16665;SDS011;8446;50.998;6.250;2023-02-22T14:26:33;14.70;;;7.37;;
16665;SDS011;8446;50.998;6.250;2023-02-22T14:29:01;8.83;;;6.77;;
16665;SDS011;8446;50.998;6.250;2023-02-22T14:31:53;11.97;;;7.50;;
16665;SDS011;8446;50.998;6.250;2023-02-22T14:34:22;15.80;;;8.77;;
16665;SDS011;8446;50.998;6.250;2023-02-22T14:37:07;12.70;;;8.30;;
16665;SDS011;8446;50.998;6.250;2023-02-22T14:39:36;10.97;;;7.40;;
16665;SDS011;8446;50.998;6.250;2023-02-22T14:42:05;21.00;;;10.07;;
16665;SDS011;8446;50.998;6.250;2023-02-22T14:44:34;10.80;;;7.40;;
16665;SDS011;8446;50.998;6.250;2023-02-22T14:47:04;16.50;;;9.00;;
16665;SDS011;8446;50.998;6.250;2023-02-22T14:49:34;11.70;;;7.40;;
16665;SDS011;8446;50.998;6.250;2023-02-22T14:52:04;17.33;;;8.70;;
16665;SDS011;8446;50.998;6.250;2023-02-22T14:54:34;15.40;;;7.60;;
16665;SDS011;8446;50.998;6.250;2023-02-22T14:57:06;12.47;;;7.30;;
16665;SDS011;8446;50.998;6.250;2023-02-22T14:59:45;12.77;;;8.77;;
16665;SDS011;8446;50.998;6.250;2023-02-22T15:02:13;9.77;;;7.00;;
16665;SDS011;8446;50.998;6.250;2023-02-22T15:04:40;13.77;;;7.67;;
16665;SDS011;8446;50.998;6.250;2023-02-22T15:07:10;15.37;;;8.37;;
16665;SDS011;8446;50.998;6.250;2023-02-22T15:09:46;12.50;;;7.90;;
16665;SDS011;8446;50.998;6.250;2023-02-22T15:12:15;12.73;;;8.20;;
16665;SDS011;8446;50.998;6.250;2023-02-22T15:14:46;10.70;;;8.33;;